CCA3411 ZBYN-ZSPD
Flight info
| Callsign | CCA3411 |
|---|---|
| Flight time | N/A |
| Altitude | 38100 |
| Route | ANPIG9ZD ANPIG B208 HFE R343 EKIMU DCT |
| Aircraft | A35K/H-SDE2E3GHIJ3J4J5LM1ORWXY/LB1D1 |
Departure
| Time | N/A |
|---|---|
| Airport | Taiyuan Wusu International Airport (ZBYN) |
Arrival
| Time | 2026-05-04 06:13 |
|---|---|
| Airport | Shanghai Pudong International Airport (ZSPD) |
| Time | Latitude | Longitude | Altitude | Speed | Heading |
|---|---|---|---|---|---|
| 2026-05-04 04:59 | 36.94764 | 112.84679 | 38116 ft | 514 kts | 155° |
| 2026-05-04 04:59 | 36.92637 | 112.85996 | 38120 ft | 513 kts | 156° |
| 2026-05-04 04:59 | 36.85059 | 112.90367 | 38119 ft | 513 kts | 158° |
| 2026-05-04 05:00 | 36.78522 | 112.93787 | 38125 ft | 511 kts | 166° |
| 2026-05-04 05:01 | 36.69367 | 112.96959 | 38104 ft | 510 kts | 168° |
| 2026-05-04 05:01 | 36.62542 | 112.99165 | 38120 ft | 509 kts | 168° |
| 2026-05-04 05:02 | 36.55667 | 113.01385 | 38126 ft | 509 kts | 168° |
| 2026-05-04 05:02 | 36.48809 | 113.03612 | 38119 ft | 509 kts | 168° |
| 2026-05-04 05:03 | 36.41886 | 113.05863 | 38112 ft | 509 kts | 168° |
| 2026-05-04 05:04 | 36.23311 | 113.12048 | 38134 ft | 511 kts | 164° |
| 2026-05-04 05:04 | 36.14823 | 113.15763 | 38141 ft | 513 kts | 163° |
| 2026-05-04 05:06 | 35.68489 | 113.36524 | 38164 ft | 509 kts | 163° |
| 2026-05-04 05:07 | 35.56355 | 113.41932 | 38164 ft | 509 kts | 163° |
| 2026-05-04 05:07 | 35.44246 | 113.47286 | 38159 ft | 509 kts | 163° |
| 2026-05-04 05:09 | 34.94038 | 113.69528 | 38136 ft | 511 kts | 164° |
| 2026-05-04 05:10 | 34.81871 | 113.74704 | 38135 ft | 508 kts | 168° |
| 2026-05-04 05:10 | 34.69503 | 113.78583 | 38166 ft | 505 kts | 170° |
| 2026-05-04 05:11 | 34.57017 | 113.82612 | 38163 ft | 506 kts | 169° |
| 2026-05-04 05:11 | 34.51044 | 113.85549 | 38148 ft | 514 kts | 154° |
| 2026-05-04 05:11 | 34.45685 | 113.90088 | 38148 ft | 519 kts | 146° |
| 2026-05-04 05:12 | 34.35419 | 113.99981 | 38145 ft | 520 kts | 145° |
| 2026-05-04 05:12 | 34.25053 | 114.09937 | 38152 ft | 521 kts | 146° |
| 2026-05-04 05:13 | 34.14699 | 114.19770 | 38151 ft | 521 kts | 146° |
| 2026-05-04 05:13 | 34.04302 | 114.29620 | 38147 ft | 521 kts | 146° |
| 2026-05-04 05:14 | 33.96682 | 114.36819 | 38144 ft | 521 kts | 146° |
| 2026-05-04 05:14 | 33.90975 | 114.42201 | 38141 ft | 521 kts | 146° |
| 2026-05-04 05:15 | 33.85258 | 114.47582 | 38147 ft | 522 kts | 146° |
| 2026-05-04 05:15 | 33.79543 | 114.52968 | 38145 ft | 522 kts | 146° |
| 2026-05-04 05:16 | 33.73863 | 114.58414 | 38145 ft | 522 kts | 146° |
| 2026-05-04 05:16 | 33.68233 | 114.63842 | 38121 ft | 523 kts | 145° |
| 2026-05-04 05:17 | 33.60435 | 114.73605 | 38145 ft | 533 kts | 135° |
| 2026-05-04 05:17 | 33.51553 | 114.85986 | 38145 ft | 534 kts | 134° |
| 2026-05-04 05:18 | 33.43349 | 114.97522 | 38145 ft | 534 kts | 134° |
| 2026-05-04 05:18 | 33.38506 | 115.04263 | 38145 ft | 534 kts | 135° |
| 2026-05-04 05:19 | 33.33655 | 115.10996 | 38129 ft | 534 kts | 135° |
| 2026-05-04 05:19 | 33.28788 | 115.17738 | 38145 ft | 537 kts | 135° |
| 2026-05-04 05:20 | 33.23897 | 115.24503 | 38147 ft | 537 kts | 135° |
| 2026-05-04 05:20 | 33.19011 | 115.31249 | 38149 ft | 537 kts | 135° |
| 2026-05-04 05:21 | 33.14156 | 115.37940 | 38145 ft | 537 kts | 135° |
| 2026-05-04 05:21 | 33.09252 | 115.44687 | 38142 ft | 537 kts | 135° |
| 2026-05-04 05:22 | 33.04343 | 115.51427 | 38142 ft | 538 kts | 136° |
| 2026-05-04 05:22 | 32.99462 | 115.58118 | 38118 ft | 537 kts | 136° |
| 2026-05-04 05:23 | 32.94525 | 115.64871 | 38147 ft | 541 kts | 136° |
| 2026-05-04 05:23 | 32.89572 | 115.71633 | 38139 ft | 541 kts | 136° |
| 2026-05-04 05:24 | 32.84660 | 115.78431 | 38143 ft | 542 kts | 135° |
| 2026-05-04 05:24 | 32.79831 | 115.85324 | 38144 ft | 543 kts | 135° |
| 2026-05-04 05:25 | 32.75001 | 115.92219 | 38144 ft | 542 kts | 135° |
| 2026-05-04 05:25 | 32.70184 | 115.99047 | 38142 ft | 543 kts | 135° |
| 2026-05-04 05:26 | 32.65319 | 116.05911 | 38143 ft | 543 kts | 135° |
| 2026-05-04 05:26 | 32.60437 | 116.12784 | 38146 ft | 546 kts | 136° |
| 2026-05-04 05:28 | 32.41104 | 116.40692 | 38141 ft | 548 kts | 135° |
| 2026-05-04 05:29 | 32.36319 | 116.47626 | 38144 ft | 547 kts | 135° |
| 2026-05-04 05:29 | 32.31486 | 116.54607 | 38150 ft | 547 kts | 135° |
| 2026-05-04 05:31 | 32.12024 | 116.82383 | 38168 ft | 549 kts | 137° |
| 2026-05-04 05:32 | 32.07065 | 116.89223 | 38166 ft | 549 kts | 137° |
| 2026-05-04 05:33 | 31.99632 | 116.99498 | 38174 ft | 549 kts | 137° |
| 2026-05-04 05:33 | 31.94681 | 117.06364 | 38173 ft | 549 kts | 137° |
| 2026-05-04 05:34 | 31.89760 | 117.13196 | 38176 ft | 550 kts | 138° |
| 2026-05-04 05:34 | 31.84812 | 117.20053 | 38166 ft | 550 kts | 138° |
| 2026-05-04 05:35 | 31.80070 | 117.27184 | 38172 ft | 562 kts | 127° |
| 2026-05-04 05:35 | 31.78313 | 117.31323 | 38172 ft | 571 kts | 116° |
| 2026-05-04 05:35 | 31.77223 | 117.35842 | 38175 ft | 579 kts | 102° |
| 2026-05-04 05:36 | 31.76285 | 117.45282 | 38174 ft | 583 kts | 97° |
| 2026-05-04 05:36 | 31.75705 | 117.54806 | 38177 ft | 585 kts | 96° |
| 2026-05-04 05:37 | 31.75128 | 117.64304 | 38179 ft | 586 kts | 96° |
| 2026-05-04 05:37 | 31.74478 | 117.73871 | 38179 ft | 586 kts | 97° |
| 2026-05-04 05:38 | 31.73446 | 117.88174 | 38183 ft | 586 kts | 97° |
| 2026-05-04 05:38 | 31.72748 | 117.97712 | 38220 ft | 586 kts | 97° |
| 2026-05-04 05:39 | 31.71698 | 118.11970 | 38185 ft | 583 kts | 97° |
| 2026-05-04 05:40 | 31.70703 | 118.26179 | 38182 ft | 584 kts | 97° |
| 2026-05-04 05:40 | 31.69973 | 118.36722 | 38184 ft | 584 kts | 97° |
| 2026-05-04 05:41 | 31.68735 | 118.54075 | 38190 ft | 586 kts | 97° |
| 2026-05-04 05:41 | 31.65634 | 118.96112 | 38194 ft | 587 kts | 98° |
| 2026-05-04 05:42 | 31.63495 | 119.35993 | 38203 ft | 590 kts | 95° |
| 2026-05-04 05:42 | 31.63094 | 119.45393 | 38192 ft | 588 kts | 95° |
| 2026-05-04 05:43 | 31.62641 | 119.54977 | 37893 ft | 586 kts | 96° |
| 2026-05-04 05:43 | 31.62408 | 119.59758 | 37634 ft | 587 kts | 96° |
| 2026-05-04 05:45 | 31.60409 | 119.92425 | 33431 ft | 569 kts | 102° |
| 2026-05-04 05:45 | 31.60173 | 119.96198 | 32807 ft | 568 kts | 101° |
| 2026-05-04 05:47 | 31.58616 | 120.29022 | 27662 ft | 544 kts | 99° |
| 2026-05-04 05:47 | 31.58254 | 120.31907 | 27297 ft | 534 kts | 109° |
| 2026-05-04 05:47 | 31.57274 | 120.36082 | 26703 ft | 525 kts | 114° |
| 2026-05-04 05:48 | 31.56151 | 120.40129 | 26141 ft | 518 kts | 115° |
| 2026-05-04 05:48 | 31.54967 | 120.44078 | 25598 ft | 511 kts | 116° |
| 2026-05-04 05:48 | 31.53760 | 120.47977 | 25058 ft | 506 kts | 113° |
| 2026-05-04 05:48 | 31.52647 | 120.51880 | 24512 ft | 503 kts | 111° |
| 2026-05-04 05:49 | 31.51596 | 120.55790 | 23979 ft | 500 kts | 110° |
| 2026-05-04 05:49 | 31.50547 | 120.59661 | 23392 ft | 496 kts | 110° |
| 2026-05-04 05:49 | 31.49128 | 120.64711 | 22649 ft | 488 kts | 111° |
| 2026-05-04 05:49 | 31.48408 | 120.67197 | 22307 ft | 484 kts | 111° |
| 2026-05-04 05:51 | 31.41955 | 120.88634 | 19197 ft | 448 kts | 110° |
| 2026-05-04 05:51 | 31.40918 | 120.92052 | 18666 ft | 443 kts | 110° |
| 2026-05-04 05:52 | 31.39892 | 120.95434 | 18133 ft | 438 kts | 110° |
| 2026-05-04 05:52 | 31.38869 | 120.98811 | 17585 ft | 432 kts | 110° |
| 2026-05-04 05:52 | 31.37884 | 121.02061 | 17073 ft | 425 kts | 110° |
| 2026-05-04 05:52 | 31.36910 | 121.05269 | 16575 ft | 419 kts | 110° |
| 2026-05-04 05:53 | 31.35904 | 121.08427 | 16128 ft | 412 kts | 115° |
| 2026-05-04 05:54 | 31.17600 | 121.13249 | 15745 ft | 415 kts | 182° |
| 2026-05-04 05:55 | 31.14707 | 121.13328 | 15732 ft | 416 kts | 180° |
| 2026-05-04 05:55 | 31.11814 | 121.13502 | 15733 ft | 417 kts | 179° |
| 2026-05-04 05:55 | 31.08922 | 121.13730 | 15734 ft | 417 kts | 178° |
| 2026-05-04 05:55 | 31.06030 | 121.13988 | 15734 ft | 417 kts | 178° |
| 2026-05-04 05:56 | 31.03107 | 121.14265 | 15734 ft | 417 kts | 178° |
| 2026-05-04 05:56 | 31.00236 | 121.14544 | 15737 ft | 417 kts | 178° |
| 2026-05-04 05:56 | 30.83492 | 121.16208 | 15739 ft | 417 kts | 177° |
| 2026-05-04 05:56 | 30.68888 | 121.17677 | 15731 ft | 418 kts | 177° |
| 2026-05-04 05:57 | 30.61455 | 121.18415 | 15729 ft | 417 kts | 177° |
| 2026-05-04 05:57 | 30.58563 | 121.18705 | 15729 ft | 417 kts | 177° |
| 2026-05-04 05:57 | 30.48011 | 121.19762 | 15729 ft | 417 kts | 177° |
| 2026-05-04 05:57 | 30.39638 | 121.20595 | 15723 ft | 417 kts | 177° |
| 2026-05-04 05:58 | 30.31507 | 121.21419 | 15724 ft | 418 kts | 175° |
| 2026-05-04 05:58 | 30.28667 | 121.22164 | 15642 ft | 421 kts | 161° |
| 2026-05-04 05:58 | 30.26119 | 121.23850 | 15403 ft | 423 kts | 142° |
| 2026-05-04 05:58 | 30.24171 | 121.26393 | 15165 ft | 424 kts | 122° |
| 2026-05-04 05:59 | 30.23017 | 121.29524 | 14829 ft | 420 kts | 103° |
| 2026-05-04 05:59 | 30.22779 | 121.32848 | 14312 ft | 413 kts | 83° |
| 2026-05-04 05:59 | 30.24581 | 121.38286 | 13236 ft | 397 kts | 51° |
| 2026-05-04 05:59 | 30.31157 | 121.43418 | 11564 ft | 377 kts | 23° |
| 2026-05-04 06:00 | 30.33526 | 121.44734 | 11210 ft | 367 kts | 23° |
| 2026-05-04 06:00 | 30.35739 | 121.45975 | 11088 ft | 350 kts | 23° |
| 2026-05-04 06:00 | 30.37880 | 121.47185 | 10940 ft | 335 kts | 23° |
| 2026-05-04 06:00 | 30.39884 | 121.48449 | 10794 ft | 322 kts | 30° |
| 2026-05-04 06:01 | 30.41576 | 121.50068 | 10630 ft | 312 kts | 44° |
| 2026-05-04 06:01 | 30.42895 | 121.52012 | 10512 ft | 301 kts | 53° |
| 2026-05-04 06:03 | 30.54353 | 121.71954 | 8586 ft | 207 kts | 52° |
| 2026-05-04 06:03 | 30.55262 | 121.73252 | 8565 ft | 204 kts | 38° |
| 2026-05-04 06:05 | 30.70818 | 121.75360 | 5818 ft | 169 kts | 0° |
| 2026-05-04 06:05 | 30.73098 | 121.75514 | 5296 ft | 161 kts | 1° |
| 2026-05-04 06:05 | 30.74205 | 121.75588 | 5056 ft | 157 kts | 1° |
| 2026-05-04 06:06 | 30.75353 | 121.75663 | 4965 ft | 167 kts | 1° |
| 2026-05-04 06:06 | 30.76505 | 121.75741 | 4877 ft | 166 kts | 0° |
| 2026-05-04 06:06 | 30.77666 | 121.75820 | 4614 ft | 171 kts | 0° |
| 2026-05-04 06:06 | 30.78836 | 121.75900 | 4424 ft | 166 kts | 360° |
| 2026-05-04 06:07 | 30.79985 | 121.75977 | 4291 ft | 166 kts | 0° |
| 2026-05-04 06:07 | 30.82751 | 121.76165 | 4021 ft | 165 kts | 0° |
| 2026-05-04 06:07 | 30.85295 | 121.76603 | 3938 ft | 169 kts | 17° |
| 2026-05-04 06:07 | 30.86407 | 121.77066 | 3929 ft | 170 kts | 15° |
| 2026-05-04 06:08 | 30.87766 | 121.80190 | 3797 ft | 178 kts | 83° |
| 2026-05-04 06:08 | 30.88071 | 121.85052 | 3516 ft | 178 kts | 85° |
| 2026-05-04 06:08 | 30.89438 | 121.89268 | 3261 ft | 173 kts | 38° |
| 2026-05-04 06:08 | 30.91268 | 121.90397 | 3111 ft | 170 kts | 9° |
| 2026-05-04 06:09 | 30.94870 | 121.89641 | 2742 ft | 152 kts | 340° |
| 2026-05-04 06:09 | 30.98149 | 121.88382 | 2473 ft | 155 kts | 341° |
| 2026-05-04 06:11 | 31.09014 | 121.84263 | 819 ft | 143 kts | 342° |
| 2026-05-04 06:11 | 31.09963 | 121.83905 | 641 ft | 143 kts | 343° |
| 2026-05-04 06:13 | 31.14837 | 121.81893 | 17 ft | 39 kts | 311° |
| 2026-05-04 06:14 | 31.14837 | 121.81038 | 21 ft | 9 kts | 344° |
| 2026-05-04 06:14 | 31.14919 | 121.81009 | 18 ft | 16 kts | 342° |
| 2026-05-04 06:15 | 31.15040 | 121.80960 | 19 ft | 11 kts | 330° |
| 2026-05-04 06:15 | 31.15051 | 121.80944 | 21 ft | 4 kts | 300° |
| 2026-05-04 06:15 | 31.15046 | 121.80897 | 21 ft | 9 kts | 253° |
| 2026-05-04 06:15 | 31.15032 | 121.80843 | 21 ft | 0 kts | 253° |